Oaxaca Xoxocotlan, Mexico

11:41 PM CDT on August 31, 2016 (GMT -0500)
Xoxocotlan International | | Change Station

Elev 5013 ft 16.97 °N, 96.73 °W | Updated 2 hours ago

Overcast
Overcast
64 °F
Feels Like 64 °F
N
0
Wind Variable Wind from North

Today
High -- | Low -- °F
--% Chance of Precip.
Yesterday
High -- | Low -- °F
Precip. -- in
Pressure 30.16 in
Visibility 7.0 miles
Clouds Mostly Cloudy 2500 ft
Mostly Cloudy 9000 ft
Overcast 20000 ft
Dew Point 63 °F
Humidity 94%
Rainfall 1.05 in
Snow Depth Not available.
7:13 AM 7:40 PM
Waning Crescent, 0% visible
METAR MMOX 010155Z 00000KT 7SM BKN025 BKN090 OVC200 18/17 A3016 RMK 8/463
Pressure 30.16 in
Visibility 7.0 miles
Clouds Mostly Cloudy 2500 ft
Mostly Cloudy 9000 ft
Overcast 20000 ft
Dew Point 63 °F
Humidity 94%
Rainfall 1.05 in
Snow Depth Not available.
7:13 AM 7:40 PM
Waning Crescent, 0% visible
METAR MMOX 010155Z 00000KT 7SM BKN025 BKN090 OVC200 18/17 A3016 RMK 8/463

10-Day Weather Forecast

No radar image for this location.
×

Almanac

Astronomy

Aug. 31, 2016 Rise Set
Actual Time
Civil Twilight
Nautical Twilight
Astronomical Twilight
Moon
Length of Visible Light
Length of Day
Tomorrow will be .
, % of the Moon is Illuminated

Today's Extremes

Country Highs Country Lows

Community

WunderPhotos

Upload Photos

1,936,313 photos uploaded!

WunderBlog® & News

Nearby

Air Quality

  Air Quality AQ Index Pollutant
Not available.

Snow Depth

Station Depth Elevation

Earthquake Activity

City Distance Mag. Time & Date
Minimum magnitude displayed is 2.5.

Coastal Water Temperatures

Place Temperature

Stations

Nearby Weather Stations

Station Location Temp. Windchill Dew Point Humidity Wind Precip. Elev Updated Type